createdAt,value
2022-07-31T00:00:21.070Z,665
2022-07-31T00:05:41.562Z,652
2022-07-31T00:11:00.421Z,657
2022-07-31T00:16:19.247Z,672
2022-07-31T00:21:37.993Z,933
2022-07-31T00:26:56.757Z,948
2022-07-31T00:32:15.268Z,851
2022-07-31T00:37:33.482Z,850
2022-07-31T00:42:51.651Z,821
2022-07-31T00:48:10.131Z,779
2022-07-31T00:53:30.250Z,773
2022-07-31T00:58:48.995Z,769
2022-07-31T01:04:07.221Z,745
2022-07-31T01:09:33.808Z,738
2022-07-31T01:14:52.289Z,662
2022-07-31T01:20:11.048Z,583
2022-07-31T01:25:29.570Z,546
2022-07-31T01:30:50.506Z,592
2022-07-31T01:36:44.929Z,521
2022-07-31T01:42:03.653Z,493
2022-07-31T01:47:22.744Z,476
2022-07-31T01:52:41.197Z,492
2022-07-31T01:57:59.675Z,521
2022-07-31T02:03:17.883Z,552
2022-07-31T02:09:08.866Z,565
2022-07-31T02:14:27.594Z,522
2022-07-31T02:19:52.518Z,497
2022-07-31T02:25:19.097Z,657
2022-07-31T02:30:38.680Z,693
2022-07-31T02:35:57.823Z,532
2022-07-31T02:41:16.018Z,543
2022-07-31T02:46:34.776Z,531
2022-07-31T02:51:52.981Z,619
2022-07-31T02:57:11.484Z,686
2022-07-31T03:02:34.550Z,571
2022-07-31T03:07:56.567Z,503
2022-07-31T03:13:15.062Z,493
2022-07-31T03:18:34.812Z,485
2022-07-31T03:23:53.297Z,483
2022-07-31T03:29:39.373Z,473
2022-07-31T03:35:02.001Z,463
2022-07-31T03:40:19.935Z,453
2022-07-31T03:45:38.153Z,448
2022-07-31T03:50:56.916Z,442
2022-07-31T03:56:14.828Z,440
2022-07-31T04:01:57.075Z,441
2022-07-31T04:07:17.088Z,444
2022-07-31T04:12:35.569Z,448
2022-07-31T04:17:53.751Z,464
2022-07-31T04:23:12.510Z,460
2022-07-31T04:28:31.265Z,466
2022-07-31T04:33:53.357Z,448
2022-07-31T04:39:15.118Z,437
2022-07-31T04:44:33.927Z,442
2022-07-31T04:49:52.367Z,434
2022-07-31T04:55:10.280Z,433
2022-07-31T05:00:28.507Z,427
2022-07-31T05:05:47.290Z,427
2022-07-31T05:10:50.142Z,425
2022-07-31T05:16:08.354Z,428
2022-07-31T05:21:27.131Z,431
2022-07-31T05:26:45.599Z,440
2022-07-31T05:32:04.108Z,435
2022-07-31T05:37:22.568Z,432
2022-07-31T05:42:41.105Z,425
2022-07-31T05:47:59.594Z,424
2022-07-31T05:53:17.541Z,425
2022-07-31T05:58:36.300Z,424
2022-07-31T06:03:54.490Z,426
2022-07-31T06:09:12.976Z,425
2022-07-31T06:14:31.739Z,431
2022-07-31T06:19:50.211Z,440
2022-07-31T06:25:09.019Z,439
2022-07-31T06:30:32.475Z,437
2022-07-31T06:35:51.192Z,449
2022-07-31T06:41:09.946Z,461
2022-07-31T06:46:28.456Z,466
2022-07-31T06:51:46.636Z,461
2022-07-31T06:57:05.126Z,473
2022-07-31T07:02:23.871Z,477
2022-07-31T07:07:42.357Z,464
2022-07-31T07:13:00.895Z,459
2022-07-31T07:18:19.623Z,453
2022-07-31T07:23:38.419Z,454
2022-07-31T07:28:56.864Z,448
2022-07-31T07:34:15.633Z,451
2022-07-31T07:39:34.123Z,469
2022-07-31T07:44:52.291Z,467
2022-07-31T07:50:10.771Z,444
2022-07-31T07:55:37.270Z,441
2022-07-31T08:00:56.342Z,440
2022-07-31T08:06:15.039Z,449
2022-07-31T08:11:33.266Z,451
2022-07-31T08:16:52.007Z,458
2022-07-31T08:22:10.784Z,458
2022-07-31T08:27:34.320Z,461
2022-07-31T08:32:59.059Z,472
2022-07-31T08:38:19.777Z,474
2022-07-31T08:43:59.708Z,461
2022-07-31T08:49:22.667Z,452
2022-07-31T08:54:41.090Z,449
2022-07-31T08:59:59.895Z,454
2022-07-31T09:05:18.370Z,455
2022-07-31T09:10:36.843Z,457
2022-07-31T09:15:39.690Z,450
2022-07-31T09:20:58.503Z,447
2022-07-31T09:26:16.982Z,446
2022-07-31T09:31:35.194Z,442
2022-07-31T09:36:53.939Z,447
2022-07-31T09:42:16.725Z,448
2022-07-31T09:47:38.920Z,432
2022-07-31T09:52:57.674Z,432
2022-07-31T09:58:16.429Z,428
2022-07-31T10:03:34.910Z,426
2022-07-31T10:08:53.122Z,430
2022-07-31T10:14:11.874Z,433
2022-07-31T10:19:30.321Z,437
2022-07-31T10:24:48.806Z,441
2022-07-31T10:30:12.852Z,461
2022-07-31T10:35:31.334Z,456
2022-07-31T10:40:50.054Z,448
2022-07-31T10:46:08.851Z,456
2022-07-31T10:51:27.293Z,449
2022-07-31T10:56:45.803Z,445
2022-07-31T11:02:04.632Z,445
2022-07-31T11:07:23.056Z,447
2022-07-31T11:12:41.367Z,451
2022-07-31T11:18:16.253Z,445
2022-07-31T11:23:55.733Z,435
2022-07-31T11:29:58.258Z,441
2022-07-31T11:35:29.931Z,438
2022-07-31T11:40:48.369Z,432
2022-07-31T11:46:07.686Z,435
2022-07-31T11:51:28.464Z,437
2022-07-31T11:56:47.256Z,432
2022-07-31T12:02:05.787Z,433
2022-07-31T12:07:08.623Z,438
2022-07-31T12:12:27.511Z,434
2022-07-31T12:17:45.950Z,430
2022-07-31T12:23:04.704Z,430
2022-07-31T12:28:23.448Z,448
2022-07-31T12:33:44.599Z,443
2022-07-31T12:39:03.394Z,428
2022-07-31T12:44:22.260Z,423
2022-07-31T12:49:40.877Z,423
2022-07-31T12:54:59.175Z,429
2022-07-31T13:00:17.626Z,436
2022-07-31T13:05:36.081Z,440
2022-07-31T13:10:54.838Z,436
2022-07-31T13:16:13.326Z,430
2022-07-31T13:21:16.193Z,429
2022-07-31T13:26:34.679Z,427
2022-07-31T13:31:53.460Z,432
2022-07-31T13:37:11.907Z,430
2022-07-31T13:42:30.667Z,434
2022-07-31T13:47:51.198Z,440
2022-07-31T13:53:20.104Z,437
2022-07-31T13:58:39.916Z,437
2022-07-31T14:03:58.359Z,460
2022-07-31T14:09:18.659Z,446
2022-07-31T14:14:36.873Z,430
2022-07-31T14:20:00.631Z,424
2022-07-31T14:25:19.379Z,429
2022-07-31T14:30:37.590Z,425
2022-07-31T14:35:56.067Z,433
2022-07-31T14:41:14.572Z,483
2022-07-31T14:46:32.477Z,449
2022-07-31T14:51:51.275Z,441
2022-07-31T14:57:09.739Z,430
2022-07-31T15:02:28.587Z,429
2022-07-31T15:07:47.727Z,448
2022-07-31T15:13:07.495Z,433
2022-07-31T15:18:26.023Z,431
2022-07-31T15:23:44.750Z,440
2022-07-31T15:29:03.219Z,437
2022-07-31T15:34:21.466Z,425
2022-07-31T15:39:39.951Z,429
2022-07-31T15:44:58.672Z,430
2022-07-31T15:50:16.582Z,435
2022-07-31T15:55:35.082Z,445
2022-07-31T16:00:53.866Z,437
2022-07-31T16:06:14.150Z,434
2022-07-31T16:12:04.141Z,419
2022-07-31T16:17:23.905Z,411
2022-07-31T16:22:42.367Z,427
2022-07-31T16:28:01.120Z,425
2022-07-31T16:33:19.293Z,426
2022-07-31T16:38:38.054Z,429
2022-07-31T16:43:56.258Z,435
2022-07-31T16:49:28.341Z,437
2022-07-31T16:54:55.027Z,442
2022-07-31T17:00:12.928Z,433
2022-07-31T17:05:31.094Z,437
2022-07-31T17:10:52.580Z,438
2022-07-31T17:16:13.041Z,456
2022-07-31T17:21:31.529Z,452
2022-07-31T17:26:52.380Z,444
2022-07-31T17:32:11.014Z,443
2022-07-31T17:37:29.637Z,440
2022-07-31T17:42:47.830Z,431
2022-07-31T17:48:06.051Z,433
2022-07-31T17:53:24.215Z,439
2022-07-31T17:59:17.455Z,427
2022-07-31T18:04:35.637Z,424
2022-07-31T18:09:54.132Z,425
2022-07-31T18:15:12.577Z,437
2022-07-31T18:20:31.014Z,444
2022-07-31T18:25:49.759Z,436
2022-07-31T18:31:12.910Z,441
2022-07-31T18:36:55.021Z,447
2022-07-31T18:42:13.639Z,461
2022-07-31T18:47:32.436Z,469
2022-07-31T18:52:50.602Z,467
2022-07-31T18:58:09.040Z,464
2022-07-31T19:03:27.475Z,468
2022-07-31T19:08:45.940Z,455
2022-07-31T19:14:04.424Z,460
2022-07-31T19:19:23.221Z,459
2022-07-31T19:25:02.792Z,455
2022-07-31T19:30:21.558Z,460
2022-07-31T19:35:55.627Z,458
2022-07-31T19:41:21.208Z,453
2022-07-31T19:46:39.697Z,463
2022-07-31T19:51:58.184Z,470
2022-07-31T19:57:20.878Z,463
2022-07-31T20:02:39.337Z,458
2022-07-31T20:07:57.810Z,457
2022-07-31T20:13:16.618Z,445
2022-07-31T20:18:34.505Z,449
2022-07-31T20:23:52.992Z,463
2022-07-31T20:29:11.453Z,531
2022-07-31T20:34:29.950Z,484
2022-07-31T20:39:48.418Z,455
2022-07-31T20:45:07.308Z,453
2022-07-31T20:50:25.212Z,453
2022-07-31T20:55:43.989Z,456
2022-07-31T21:01:02.799Z,449
2022-07-31T21:06:21.705Z,440
2022-07-31T21:11:39.595Z,434
2022-07-31T21:17:00.712Z,428
2022-07-31T21:22:19.456Z,426
2022-07-31T21:27:37.391Z,426
2022-07-31T21:32:55.872Z,424
2022-07-31T21:38:14.635Z,430
2022-07-31T21:43:33.471Z,430
2022-07-31T21:49:19.001Z,432
2022-07-31T21:54:37.613Z,431
2022-07-31T21:59:55.822Z,432
2022-07-31T22:05:14.731Z,426
2022-07-31T22:10:33.225Z,426
2022-07-31T22:15:59.617Z,420
2022-07-31T22:21:19.123Z,420
2022-07-31T22:26:37.349Z,420
2022-07-31T22:31:56.086Z,422
2022-07-31T22:37:14.559Z,427
2022-07-31T22:42:33.360Z,422
2022-07-31T22:47:51.825Z,424
2022-07-31T22:53:10.301Z,435
2022-07-31T22:58:28.499Z,442
2022-07-31T23:03:47.262Z,442
2022-07-31T23:09:05.438Z,447
2022-07-31T23:14:23.955Z,453
2022-07-31T23:19:42.683Z,451
2022-07-31T23:25:12.376Z,449
2022-07-31T23:30:30.571Z,448
2022-07-31T23:35:49.055Z,433
2022-07-31T23:41:07.535Z,424
2022-07-31T23:46:26.755Z,419
2022-07-31T23:51:45.932Z,419
2022-07-31T23:57:04.162Z,420
